Time;durP1;ratioP1;P1;durP2;ratioP2;P2;SDS_P1;SDS_P2;PMS_P1;PMS_P2;Temp;Humidity;BMP_temperature;BMP_pressure;BME280_temperature;BME280_humidity;BME280_pressure;Samples;Min_cycle;Max_cycle;Signal;HPM_P1;HPM_P2
2022/03/20 00:01:04;;;;;;;27.67;19.25;;;;;;;3.59;58.46;102971.28;4992122;28;20022;-22
2022/03/20 00:03:30;;;;;;;27.25;18.48;;;;;;;3.57;58.87;102965.06;4987788;28;20539;-21
2022/03/20 00:05:56;;;;;;;25.95;18.60;;;;;;;3.55;58.86;102976.22;4989616;28;21011;-22
2022/03/20 00:08:22;;;;;;;30.08;19.30;;;;;;;3.53;58.45;102967.44;4985649;28;20028;-23
2022/03/20 00:10:48;;;;;;;25.42;19.02;;;;;;;3.51;58.55;102974.25;4992774;28;20496;-22
2022/03/20 00:13:17;;;;;;;30.55;19.48;;;;;;;3.47;58.63;102968.84;4993627;28;20018;-22
2022/03/20 00:15:43;;;;;;;32.60;19.55;;;;;;;3.46;59.04;102968.75;4991878;28;20113;-21
2022/03/20 00:18:09;;;;;;;25.98;18.15;;;;;;;3.44;58.71;102962.56;4991805;28;20022;-22
2022/03/20 00:20:36;;;;;;;29.38;19.85;;;;;;;3.41;58.46;102965.00;4991732;28;20026;-21
2022/03/20 00:23:06;;;;;;;30.02;20.35;;;;;;;3.39;58.23;102967.53;4991357;28;20053;-21
2022/03/20 00:25:33;;;;;;;29.95;19.92;;;;;;;3.37;58.39;102966.53;4992989;28;20030;-22
2022/03/20 00:27:59;;;;;;;32.22;19.90;;;;;;;3.34;58.70;102966.38;4981491;28;20022;-21
2022/03/20 00:30:24;;;;;;;29.67;20.20;;;;;;;3.31;58.79;102963.56;4992381;28;20031;-21
2022/03/20 00:32:50;;;;;;;29.27;19.42;;;;;;;3.30;58.61;102956.56;4992193;28;20032;-22
2022/03/20 00:35:15;;;;;;;32.60;20.98;;;;;;;3.29;58.47;102962.56;4994886;28;20073;-22
2022/03/20 00:37:41;;;;;;;30.33;21.08;;;;;;;3.27;58.65;102966.81;4990294;28;20500;-22
2022/03/20 00:40:07;;;;;;;24.17;18.40;;;;;;;3.24;58.53;102964.03;4990529;28;20038;-22
2022/03/20 00:42:32;;;;;;;31.17;20.77;;;;;;;3.21;58.58;102968.25;4990449;28;20442;-23
2022/03/20 00:44:57;;;;;;;29.08;19.38;;;;;;;3.19;58.92;102956.84;4994906;28;20026;-22
2022/03/20 00:47:23;;;;;;;25.85;18.67;;;;;;;3.16;58.82;102954.03;4994445;28;20499;-22
2022/03/20 00:49:49;;;;;;;30.13;19.70;;;;;;;3.14;58.73;102947.81;4987711;28;20084;-22
2022/03/20 00:52:14;;;;;;;25.75;19.75;;;;;;;3.13;58.92;102951.25;4990907;28;20114;-21
2022/03/20 00:54:40;;;;;;;30.88;20.23;;;;;;;3.11;58.88;102947.66;4987956;28;20042;-21
2022/03/20 00:57:06;;;;;;;30.52;20.08;;;;;;;3.08;58.83;102948.38;4992367;28;20034;-22
2022/03/20 00:59:32;;;;;;;29.33;19.85;;;;;;;3.06;59.11;102946.47;4990889;28;20038;-22
2022/03/20 01:01:57;;;;;;;27.85;19.50;;;;;;;3.05;59.05;102955.13;4991268;28;20034;-21
2022/03/20 01:04:22;;;;;;;27.70;20.38;;;;;;;3.02;58.75;102949.72;4995655;28;20025;-22
2022/03/20 01:06:48;;;;;;;35.08;20.15;;;;;;;3.01;59.38;102950.53;4987628;28;20028;-22
2022/03/20 01:09:13;;;;;;;31.00;21.23;;;;;;;2.98;59.12;102950.34;4991527;28;20025;-22
2022/03/20 01:11:39;;;;;;;27.85;18.75;;;;;;;2.95;59.24;102946.78;4994403;28;20261;-21
2022/03/20 01:14:06;;;;;;;28.35;20.13;;;;;;;2.94;58.93;102938.84;4991476;28;20029;-21
2022/03/20 01:16:31;;;;;;;26.08;20.38;;;;;;;2.90;59.27;102937.75;4989557;28;20025;-22
2022/03/20 01:18:57;;;;;;;28.85;19.80;;;;;;;2.89;58.96;102938.56;4991456;28;20034;-22
2022/03/20 01:21:23;;;;;;;27.90;19.70;;;;;;;2.87;59.24;102936.69;4995081;28;20049;-21
2022/03/20 01:23:48;;;;;;;29.95;20.50;;;;;;;2.85;59.24;102936.59;4993549;28;20031;-23
2022/03/20 01:26:14;;;;;;;27.02;18.02;;;;;;;2.82;59.03;102929.50;4988587;28;20026;-22
2022/03/20 01:28:40;;;;;;;30.85;20.85;;;;;;;2.80;59.18;102925.00;4993311;28;20036;-22
2022/03/20 01:31:08;;;;;;;28.02;19.70;;;;;;;2.79;58.94;102928.41;4986746;28;20026;-23
2022/03/20 01:33:34;;;;;;;29.65;19.33;;;;;;;2.77;58.88;102910.06;4991680;28;20024;-21
2022/03/20 01:36:00;;;;;;;28.70;19.25;;;;;;;2.75;59.00;102913.38;4991213;28;20030;-22
2022/03/20 01:38:26;;;;;;;28.38;20.33;;;;;;;2.73;58.73;102918.50;4991111;28;20066;-21
2022/03/20 01:40:52;;;;;;;27.83;20.40;;;;;;;2.69;58.92;102904.41;4991688;28;20022;-22
2022/03/20 01:43:18;;;;;;;28.42;19.52;;;;;;;2.68;58.77;102909.53;4993473;28;20025;-21
2022/03/20 01:45:43;;;;;;;29.20;20.98;;;;;;;2.66;59.10;102904.22;4988747;28;20026;-21
2022/03/20 01:48:09;;;;;;;27.60;20.05;;;;;;;2.65;59.20;102904.13;4988258;28;20031;-22
2022/03/20 01:50:34;;;;;;;28.48;19.85;;;;;;;2.65;59.37;102904.13;4988434;28;20121;-22
2022/03/20 01:53:00;;;;;;;30.08;21.00;;;;;;;2.61;59.24;102902.16;4977781;28;20077;-22
2022/03/20 01:55:28;;;;;;;33.10;20.33;;;;;;;2.59;59.09;102896.84;4991852;28;20384;-22
2022/03/20 01:57:54;;;;;;;28.30;20.98;;;;;;;2.58;59.64;102892.44;4993453;28;20034;-21
2022/03/20 02:00:20;;;;;;;29.88;19.85;;;;;;;2.54;59.28;102887.88;4988456;28;20125;-22
2022/03/20 02:02:46;;;;;;;30.92;20.25;;;;;;;2.55;59.15;102889.66;4990623;28;20034;-21
2022/03/20 02:05:12;;;;;;;29.98;20.92;;;;;;;2.53;59.11;102888.66;4991834;28;20026;-22
2022/03/20 02:07:38;;;;;;;28.17;18.95;;;;;;;2.48;59.21;102885.78;4989744;28;20542;-22
2022/03/20 02:10:05;;;;;;;28.45;20.23;;;;;;;2.46;59.32;102884.78;4992968;28;20042;-22
2022/03/20 02:12:31;;;;;;;30.33;20.40;;;;;;;2.46;59.04;102886.50;4987782;28;20030;-19
2022/03/20 02:15:01;;;;;;;31.60;21.23;;;;;;;2.44;59.26;102879.47;4990920;28;20026;-21
2022/03/20 02:17:28;;;;;;;28.63;19.58;;;;;;;2.41;59.33;102876.69;4990369;28;20138;-23
2022/03/20 02:19:55;;;;;;;25.70;20.20;;;;;;;2.42;59.30;102873.28;4993670;28;20018;-22
2022/03/20 02:22:20;;;;;;;33.75;20.85;;;;;;;2.40;59.11;102867.09;4991369;28;20057;-22
2022/03/20 02:24:49;;;;;;;27.13;19.73;;;;;;;2.39;59.02;102870.50;4990041;28;20507;-21
2022/03/20 02:27:19;;;;;;;29.60;20.35;;;;;;;2.37;59.14;102868.63;4987596;28;20117;-21
2022/03/20 02:30:04;;;;;;;31.63;19.42;;;;;;;2.35;59.13;102865.91;4993480;28;20037;-22
2022/03/20 02:32:30;;;;;;;27.58;19.55;;;;;;;2.33;59.12;102870.13;4991050;28;20034;-21
2022/03/20 02:35:01;;;;;;;30.73;20.55;;;;;;;2.32;59.36;102863.13;4987878;28;20040;-21
2022/03/20 02:37:28;;;;;;;30.92;18.90;;;;;;;2.30;59.26;102863.03;4993906;28;20551;-20
2022/03/20 02:39:56;;;;;;;30.80;20.60;;;;;;;2.29;59.21;102862.94;4989370;28;20496;-21
2022/03/20 02:42:22;;;;;;;29.40;20.60;;;;;;;2.26;59.57;102855.84;4991899;28;20109;-21
2022/03/20 02:44:54;;;;;;;31.33;19.80;;;;;;;2.25;59.24;102856.66;4988399;28;20038;-22
2022/03/20 02:47:23;;;;;;;;;;;;;;;2.23;59.52;102849.56;4989145;28;20034;-22
2022/03/20 02:50:10;;;;;;;29.35;19.90;;;;;;;2.22;59.20;102853.84;4991114;28;19917;-21
2022/03/20 02:52:39;;;;;;;31.83;20.30;;;;;;;2.19;59.38;102845.84;4993667;28;20050;-20
2022/03/20 02:55:05;;;;;;;27.52;19.42;;;;;;;2.17;59.43;102850.97;4987985;28;20384;-21
2022/03/20 02:57:31;;;;;;;28.83;20.50;;;;;;;2.15;59.52;102847.38;4988399;28;20030;-21
2022/03/20 03:00:00;;;;;;;27.23;20.02;;;;;;;2.15;59.62;102854.28;4989591;28;20498;-21
2022/03/20 03:02:27;;;;;;;29.13;21.23;;;;;;;2.13;59.48;102843.78;4992978;28;20492;-21
2022/03/20 03:04:52;;;;;;;27.85;19.58;;;;;;;2.10;59.31;102846.19;4990296;28;20034;-21
2022/03/20 03:07:17;;;;;;;30.52;21.35;;;;;;;2.10;59.51;102843.56;4988273;28;20065;-22
2022/03/20 03:12:27;;;;;;;31.42;20.45;;;;;;;2.07;59.63;102839.91;4991993;28;20038;-21
2022/03/20 03:17:36;;;;;;;26.23;20.88;;;;;;;2.03;59.47;102834.50;4993247;28;20033;-21
2022/03/20 03:20:01;;;;;;;30.10;20.27;;;;;;;2.02;59.25;102831.81;4995159;28;20026;-22
2022/03/20 03:22:27;;;;;;;29.95;21.17;;;;;;;2.00;59.37;102823.03;4994399;28;20030;-21
2022/03/20 03:24:54;;;;;;;34.13;21.05;;;;;;;2.00;58.96;102823.03;4994001;28;20070;-22
2022/03/20 03:27:19;;;;;;;29.85;19.90;;;;;;;2.00;59.13;102817.81;4989641;28;20034;-18
2022/03/20 03:29:45;;;;;;;32.20;21.92;;;;;;;1.99;59.11;102821.19;4993592;28;20093;-21
2022/03/20 03:32:10;;;;;;;30.27;21.38;;;;;;;1.96;59.29;102823.66;4991107;28;20034;-22
2022/03/20 03:37:20;;;;;;;35.42;21.15;;;;;;;1.94;59.27;102822.63;4993094;28;20503;-21
2022/03/20 03:39:49;;;;;;;29.35;19.70;;;;;;;1.90;59.43;102813.75;4995825;28;20096;-23
2022/03/20 03:42:14;;;;;;;28.42;20.05;;;;;;;1.90;59.30;102819.84;4990913;28;20148;-21
2022/03/20 03:44:40;;;;;;;31.33;20.65;;;;;;;1.89;59.05;102818.03;4993630;28;20521;-22
2022/03/20 03:47:06;;;;;;;29.08;20.95;;;;;;;1.87;58.80;102814.44;4989732;28;20026;-20
2022/03/20 03:49:33;;;;;;;26.05;20.30;;;;;;;1.86;59.00;102815.25;4990787;28;20089;-22
2022/03/20 03:51:59;;;;;;;29.33;19.83;;;;;;;1.84;59.31;102814.28;4989598;28;20049;-22
2022/03/20 03:54:24;;;;;;;30.02;19.70;;;;;;;1.83;59.05;102812.47;4995126;28;20040;-21
2022/03/20 03:56:49;;;;;;;31.20;21.48;;;;;;;1.81;58.92;102806.28;4992761;28;20487;-22
2022/03/20 03:59:16;;;;;;;28.55;21.08;;;;;;;1.79;58.94;102807.88;4996657;28;20030;-21
2022/03/20 04:01:41;;;;;;;30.38;21.73;;;;;;;1.78;59.21;102800.88;4995202;28;20059;-20
2022/03/20 04:04:07;;;;;;;29.52;20.63;;;;;;;1.78;58.89;102811.28;5000726;28;20025;-21
2022/03/20 04:06:33;;;;;;;30.55;21.15;;;;;;;1.75;59.12;102805.88;4996225;28;20072;-22
2022/03/20 04:08:58;;;;;;;32.17;21.27;;;;;;;1.73;58.92;102795.38;4992991;28;20029;-22
2022/03/20 04:11:23;;;;;;;29.58;20.95;;;;;;;1.74;59.15;102809.31;4991026;28;20038;-21
2022/03/20 04:13:49;;;;;;;31.30;21.17;;;;;;;1.73;58.87;102802.31;4993793;28;20026;-22
2022/03/20 04:16:14;;;;;;;30.60;21.27;;;;;;;1.71;59.17;102799.59;4993660;28;20053;-21
2022/03/20 04:18:39;;;;;;;30.77;21.05;;;;;;;1.69;58.94;102801.19;4991921;28;20061;-21
2022/03/20 04:21:05;;;;;;;33.53;20.40;;;;;;;1.68;59.19;102796.81;4992076;28;20563;-21
2022/03/20 04:23:44;;;;;;;28.90;20.38;;;;;;;1.67;59.21;102798.50;4992028;28;20041;-21
2022/03/20 04:26:10;;;;;;;28.00;19.98;;;;;;;1.66;58.98;102794.09;4988388;28;20377;-21
2022/03/20 04:28:36;;;;;;;33.85;21.45;;;;;;;1.67;59.24;102793.28;4991843;28;20037;-22
2022/03/20 04:31:01;;;;;;;30.25;20.80;;;;;;;1.64;59.34;102792.22;4992539;28;20040;-21
2022/03/20 04:33:29;;;;;;;34.53;21.35;;;;;;;1.62;59.19;102799.03;4994241;28;20461;-21
2022/03/20 04:35:55;;;;;;;31.20;20.45;;;;;;;1.60;59.32;102798.91;4990378;28;20046;-20
2022/03/20 04:38:21;;;;;;;30.55;21.90;;;;;;;1.58;59.27;102805.75;4991938;28;20117;-20
2022/03/20 04:40:48;;;;;;;31.38;21.10;;;;;;;1.57;59.06;102800.44;4992758;28;20092;-19
2022/03/20 04:43:13;;;;;;;32.70;20.90;;;;;;;1.56;59.45;102799.53;4995096;28;20554;-21
2022/03/20 04:45:39;;;;;;;29.90;20.83;;;;;;;1.55;59.22;102802.94;4990925;28;20061;-21
2022/03/20 04:59:01;;;;;;;34.95;21.15;;;;;;;1.48;59.13;102792.97;4990930;28;20053;-21
2022/03/20 05:01:27;;;;;;;29.92;20.85;;;;;;;1.47;59.29;102798.97;4992393;28;20497;-21
2022/03/20 05:03:52;;;;;;;35.00;21.88;;;;;;;1.44;59.22;102797.09;4989766;28;20035;-22
2022/03/20 05:06:17;;;;;;;29.05;19.83;;;;;;;1.45;59.68;102800.56;4990507;28;20056;-21
2022/03/20 05:08:43;;;;;;;29.48;19.92;;;;;;;1.41;59.51;102799.50;4992287;28;20038;-22
2022/03/20 05:13:52;;;;;;;31.90;22.02;;;;;;;1.39;59.29;102815.00;4991917;28;20060;-22
2022/03/20 05:16:18;;;;;;;28.13;19.95;;;;;;;1.38;60.01;102810.59;4991535;28;20065;-21
2022/03/20 05:18:44;;;;;;;32.75;21.27;;;;;;;1.38;60.17;102814.88;4995267;28;20037;-21
2022/03/20 05:21:10;;;;;;;29.33;21.02;;;;;;;1.38;59.81;102809.69;4991400;28;20393;-21
2022/03/20 05:23:36;;;;;;;29.58;21.63;;;;;;;1.36;59.86;102809.59;4993194;28;20033;-22
2022/03/20 05:26:02;;;;;;;27.50;20.70;;;;;;;1.37;59.65;102813.09;4990760;28;20041;-20
2022/03/20 05:28:27;;;;;;;32.38;21.02;;;;;;;1.35;59.28;102800.00;4990486;28;20497;-22
2022/03/20 05:30:52;;;;;;;30.10;21.42;;;;;;;1.33;59.76;102801.59;4990909;28;20038;-22
2022/03/20 05:33:18;;;;;;;33.45;22.00;;;;;;;1.33;59.73;102795.50;4995911;28;20392;-22
2022/03/20 05:35:47;;;;;;;33.53;21.63;;;;;;;1.33;58.96;102801.59;4991972;28;20034;-22
2022/03/20 05:38:13;;;;;;;31.95;20.60;;;;;;;1.33;59.29;102800.72;4988973;28;20117;-21
2022/03/20 05:40:39;;;;;;;35.00;22.30;;;;;;;1.31;59.27;102798.00;4990132;28;20054;-22
2022/03/20 05:43:08;;;;;;;31.88;21.08;;;;;;;1.31;59.42;102812.69;4988853;28;20034;-20
2022/03/20 05:45:34;;;;;;;28.58;20.80;;;;;;;1.31;59.85;102810.09;4986441;28;20080;-21
2022/03/20 05:47:59;;;;;;;31.77;21.38;;;;;;;1.32;59.14;102814.47;4989620;28;20449;-22
2022/03/20 05:50:25;;;;;;;32.13;20.83;;;;;;;1.30;59.27;102811.78;4993412;28;20121;-21
2022/03/20 05:52:52;;;;;;;32.53;21.90;;;;;;;1.30;59.22;102810.91;4989985;28;20034;-21
2022/03/20 05:55:18;;;;;;;34.35;20.42;;;;;;;1.30;59.65;102810.91;4990141;28;20403;-22
2022/03/20 05:58:01;;;;;;;32.55;21.40;;;;;;;1.28;59.45;102819.53;4987986;28;20045;-21
2022/03/20 06:00:28;;;;;;;32.70;21.90;;;;;;;1.26;59.43;102813.31;4989458;28;20401;-20
2022/03/20 06:02:53;;;;;;;32.35;21.65;;;;;;;1.27;59.77;102811.63;4998588;28;20030;-21
2022/03/20 06:05:19;;;;;;;38.58;22.40;;;;;;;1.26;59.58;102817.59;4997867;28;20149;-21
2022/03/20 06:07:47;;;;;;;31.73;20.67;;;;;;;1.26;59.91;102810.72;4999588;28;20034;-20
2022/03/20 06:10:17;;;;;;;35.15;22.98;;;;;;;1.27;59.64;102819.41;4997728;28;20137;-21
2022/03/20 06:12:43;;;;;;;29.88;21.98;;;;;;;1.26;59.74;102818.50;4990891;28;20263;-21
2022/03/20 06:15:09;;;;;;;32.25;22.67;;;;;;;1.25;59.72;102808.91;4988444;28;20030;-22
2022/03/20 06:17:45;;;;;;;34.63;22.13;;;;;;;1.27;59.84;102822.00;4986656;28;20030;-20
2022/03/20 06:20:12;;;;;;;32.70;21.20;;;;;;;1.28;59.89;102816.00;4989115;28;20031;-21
2022/03/20 06:22:38;;;;;;;34.63;21.52;;;;;;;1.28;60.18;102813.41;4989736;28;20066;-21
2022/03/20 06:25:07;;;;;;;32.90;20.92;;;;;;;1.29;59.81;102815.19;4993862;28;20109;-21
2022/03/20 06:27:50;;;;;;;30.02;21.23;;;;;;;1.30;59.91;102819.59;4991883;28;20041;-21
2022/03/20 06:30:16;;;;;;;33.30;21.50;;;;;;;1.31;59.75;102815.28;4992577;28;20029;-21
2022/03/20 06:32:44;;;;;;;35.40;22.30;;;;;;;1.31;59.94;102817.91;4987305;28;20038;-22
2022/03/20 06:35:10;;;;;;;34.03;20.98;;;;;;;1.33;60.13;102824.97;4987782;28;20073;-21
2022/03/20 06:37:37;;;;;;;37.10;22.13;;;;;;;1.34;60.01;102821.63;4988961;28;20031;-22
2022/03/20 06:40:03;;;;;;;33.90;21.60;;;;;;;1.36;59.98;102821.69;4991216;28;20026;-21
2022/03/20 06:42:28;;;;;;;31.23;21.45;;;;;;;1.37;60.37;102819.19;4990221;28;20026;-22
2022/03/20 06:44:54;;;;;;;32.75;21.33;;;;;;;1.38;60.32;102821.00;4990184;28;20496;-21
2022/03/20 06:47:21;;;;;;;31.77;21.08;;;;;;;1.40;60.38;102824.56;4985353;28;20030;-22
2022/03/20 06:49:47;;;;;;;30.83;21.63;;;;;;;1.42;60.21;102824.69;4989504;28;20699;-20
2022/03/20 06:52:12;;;;;;;31.88;21.15;;;;;;;1.45;60.30;102819.69;4995965;28;20037;-22
2022/03/20 06:54:38;;;;;;;33.25;21.45;;;;;;;1.46;60.56;102828.41;4993895;28;20030;-20
2022/03/20 06:57:03;;;;;;;34.97;21.15;;;;;;;1.48;60.51;102834.56;4974117;28;20037;-21
2022/03/20 06:59:28;;;;;;;29.98;21.25;;;;;;;1.52;60.47;102828.75;4992264;28;20031;-22
2022/03/20 07:01:54;;;;;;;32.20;20.55;;;;;;;1.53;60.54;102820.16;4996766;28;20026;-21
2022/03/20 07:04:21;;;;;;;31.98;21.08;;;;;;;1.57;60.68;102829.06;4993435;28;20508;-22
2022/03/20 07:06:47;;;;;;;29.10;20.60;;;;;;;1.59;60.42;102830.03;4995690;28;20050;-22
2022/03/20 07:09:12;;;;;;;30.20;20.52;;;;;;;1.63;60.45;102827.72;4989269;28;20093;-22
2022/03/20 07:11:37;;;;;;;28.92;19.75;;;;;;;1.66;60.42;102825.31;4992992;28;20411;-21
2022/03/20 07:14:03;;;;;;;26.83;20.42;;;;;;;1.69;60.63;102827.22;4994163;28;20062;-22
2022/03/20 07:16:31;;;;;;;28.25;20.60;;;;;;;1.75;60.42;102837.09;4993935;28;20022;-21
2022/03/20 07:18:56;;;;;;;32.58;20.52;;;;;;;1.77;60.87;102838.13;4990647;28;20044;-22
2022/03/20 07:21:22;;;;;;;29.80;21.23;;;;;;;1.82;60.59;102823.69;4992388;28;20317;-22
2022/03/20 07:23:48;;;;;;;30.42;20.92;;;;;;;1.85;60.59;102823.88;4989768;28;20093;-22
2022/03/20 07:31:41;;;;;;;31.85;21.38;;;;;;;2.00;60.91;102817.81;4995477;28;20126;-21
2022/03/20 07:34:07;;;;;;;26.98;19.42;;;;;;;2.05;60.95;102818.97;4994065;28;20160;-22
2022/03/20 07:36:32;;;;;;;29.00;20.67;;;;;;;2.11;61.00;102821.06;4992718;28;20850;-22
2022/03/20 07:38:58;;;;;;;34.22;22.05;;;;;;;2.16;60.84;102819.63;4993306;28;20030;-22
2022/03/20 07:41:23;;;;;;;31.20;21.30;;;;;;;2.18;60.65;102807.59;4995540;28;20027;-21
2022/03/20 07:43:49;;;;;;;34.90;20.88;;;;;;;2.22;60.88;102809.59;4992713;28;20045;-22
2022/03/20 07:46:14;;;;;;;28.85;21.20;;;;;;;2.29;60.77;102816.06;4991366;28;20034;-21
2022/03/20 07:48:40;;;;;;;28.48;20.27;;;;;;;2.34;60.63;102812.03;4995269;28;20022;-21
2022/03/20 07:51:06;;;;;;;30.48;21.42;;;;;;;2.39;60.32;102818.41;4994278;28;20365;-22
2022/03/20 07:53:32;;;;;;;29.70;21.27;;;;;;;2.44;60.54;102816.97;4995041;28;20029;-21
2022/03/20 07:55:57;;;;;;;32.92;22.27;;;;;;;2.52;60.39;102816.53;4988786;28;20062;-21
2022/03/20 07:58:22;;;;;;;30.40;20.63;;;;;;;2.57;60.27;102815.09;4993072;28;20080;-22
2022/03/20 08:00:48;;;;;;;29.00;21.02;;;;;;;2.63;60.41;102812.84;4990668;28;20045;-22
2022/03/20 08:03:15;;;;;;;30.30;20.98;;;;;;;2.69;60.73;102810.59;4993193;28;20030;-22
2022/03/20 08:05:40;;;;;;;29.73;20.38;;;;;;;2.74;60.52;102816.09;4990698;28;20099;-21
2022/03/20 08:08:07;;;;;;;33.65;21.13;;;;;;;2.83;60.14;102815.69;4990418;28;20125;-21
2022/03/20 08:10:32;;;;;;;27.88;20.77;;;;;;;2.88;59.83;102809.06;4994443;28;20128;-21
2022/03/20 08:12:57;;;;;;;33.58;21.02;;;;;;;2.95;59.92;102808.59;4992099;28;20065;-22
2022/03/20 08:15:24;;;;;;;26.48;20.17;;;;;;;3.02;60.15;102807.22;4992822;28;20381;-22
2022/03/20 08:17:50;;;;;;;30.85;19.30;;;;;;;3.10;60.04;102807.66;4990647;28;20038;-22
2022/03/20 08:20:15;;;;;;;28.48;20.23;;;;;;;3.17;60.14;102806.31;4994279;28;20026;-19
2022/03/20 08:22:42;;;;;;;34.08;19.35;;;;;;;3.24;60.24;102808.44;4992471;28;20492;-21
2022/03/20 08:25:08;;;;;;;28.90;20.45;;;;;;;3.30;59.93;102800.94;4991305;28;20034;-21
2022/03/20 08:27:44;;;;;;;29.42;20.52;;;;;;;3.41;59.65;102793.72;4997124;28;20072;-22
2022/03/20 08:30:13;;;;;;;31.35;20.25;;;;;;;3.48;59.81;102797.56;4993741;28;20035;-22
2022/03/20 08:32:38;;;;;;;33.80;21.55;;;;;;;3.58;59.72;102793.72;4997693;28;20121;-21
2022/03/20 08:35:05;;;;;;;28.08;19.83;;;;;;;3.63;59.51;102783.56;5001766;28;20120;-22
2022/03/20 08:37:32;;;;;;;31.38;19.80;;;;;;;3.75;59.31;102780.69;4998097;28;20541;-22
2022/03/20 08:39:58;;;;;;;32.53;21.48;;;;;;;3.83;58.83;102781.97;4992674;28;20034;-22
2022/03/20 08:42:23;;;;;;;27.90;19.52;;;;;;;3.93;58.57;102776.44;4996569;28;20550;-21
2022/03/20 08:44:50;;;;;;;28.85;19.63;;;;;;;4.02;58.93;102776.03;4995284;28;20026;-22
2022/03/20 08:47:16;;;;;;;29.95;19.05;;;;;;;4.12;58.50;102761.72;4993990;28;20068;-22
2022/03/20 08:49:42;;;;;;;26.15;18.50;;;;;;;4.22;58.24;102763.09;4993255;28;20030;-20
2022/03/20 08:52:08;;;;;;;27.67;19.25;;;;;;;4.31;58.35;102766.19;4992061;28;20120;-22
2022/03/20 08:54:33;;;;;;;25.80;18.58;;;;;;;4.39;58.37;102761.34;4989199;28;20068;-21
2022/03/20 08:57:01;;;;;;;25.70;18.17;;;;;;;4.48;58.01;102751.34;4996103;28;20026;-21
2022/03/20 08:59:26;;;;;;;24.02;18.55;;;;;;;4.57;57.49;102765.69;4995042;28;20034;-21
2022/03/20 09:01:52;;;;;;;26.17;18.27;;;;;;;4.67;57.30;102751.34;4992549;28;20038;-21
2022/03/20 09:04:17;;;;;;;27.42;19.42;;;;;;;4.75;57.25;102750.91;4993062;28;20037;-21
2022/03/20 09:06:47;;;;;;;25.90;18.30;;;;;;;4.85;57.80;102751.34;4991863;28;20493;-21
2022/03/20 09:09:14;;;;;;;25.88;18.38;;;;;;;4.94;57.25;102746.53;4991976;28;20497;-21
2022/03/20 09:11:41;;;;;;;24.80;18.77;;;;;;;5.03;56.68;102746.09;4994074;28;20050;-20
2022/03/20 09:14:07;;;;;;;24.85;18.05;;;;;;;5.13;56.98;102750.03;4972003;28;20046;-22
2022/03/20 09:19:18;;;;;;;23.83;17.95;;;;;;;5.32;56.42;102743.97;4994304;28;20045;-20
2022/03/20 09:21:44;;;;;;;21.92;17.13;;;;;;;5.41;57.15;102738.25;4994084;28;20132;-22
2022/03/20 09:24:09;;;;;;;24.30;18.05;;;;;;;5.49;57.07;102741.19;4991524;28;20030;-21
2022/03/20 09:26:35;;;;;;;26.00;18.08;;;;;;;5.58;56.45;102746.88;4992776;28;20077;-21
2022/03/20 09:29:01;;;;;;;23.63;17.80;;;;;;;5.68;57.11;102749.88;4992338;28;20034;-21
2022/03/20 09:31:27;;;;;;;24.70;17.38;;;;;;;5.77;56.74;102748.56;4991294;28;20037;-21
2022/03/20 09:33:53;;;;;;;23.95;16.77;;;;;;;5.86;56.59;102744.56;4991592;28;20518;-21
2022/03/20 09:36:19;;;;;;;27.83;19.08;;;;;;;5.96;56.27;102749.38;4993502;28;20030;-21
2022/03/20 09:38:44;;;;;;;25.73;17.65;;;;;;;6.03;56.53;102751.47;4992912;28;20134;-21
2022/03/20 09:41:11;;;;;;;23.55;17.67;;;;;;;6.13;56.47;102747.53;4988539;28;20022;-21
2022/03/20 09:43:39;;;;;;;23.90;17.75;;;;;;;6.23;56.00;102745.28;4992116;28;20026;-21
2022/03/20 09:46:04;;;;;;;26.70;18.20;;;;;;;6.33;56.16;102746.59;4988460;28;20023;-21
2022/03/20 09:48:30;;;;;;;23.33;17.50;;;;;;;6.41;55.39;102737.31;4992076;28;20042;-21
2022/03/20 09:51:00;;;;;;;21.42;16.35;;;;;;;6.51;55.75;102744.72;4972453;28;20080;-21
2022/03/20 09:53:26;;;;;;;23.90;17.70;;;;;;;6.61;55.61;102739.88;4992530;28;20422;-21
2022/03/20 09:55:55;;;;;;;21.20;17.48;;;;;;;6.69;55.42;102741.06;4992484;28;20026;-21
2022/03/20 09:58:23;;;;;;;21.73;16.00;;;;;;;6.79;55.07;102739.69;4975179;28;20046;-21
2022/03/20 10:00:49;;;;;;;24.83;17.58;;;;;;;6.87;55.39;102745.28;4991282;28;20026;-21
2022/03/20 10:03:19;;;;;;;19.42;16.20;;;;;;;6.96;55.10;102742.09;4993435;28;20075;-21
2022/03/20 10:06:07;;;;;;;21.95;16.92;;;;;;;7.04;54.96;102738.06;4992328;28;20030;-21
2022/03/20 10:08:33;;;;;;;21.67;16.75;;;;;;;7.14;55.60;102737.56;4992873;28;20026;-21
2022/03/20 10:11:15;;;;;;;20.40;15.98;;;;;;;7.24;55.18;102730.94;4991286;28;20519;-21
2022/03/20 10:14:33;;;;;;;23.45;16.60;;;;;;;7.34;54.56;102726.03;4989443;28;20372;-21
2022/03/20 10:17:13;;;;;;;24.38;17.00;;;;;;;7.45;54.11;102729.97;4982254;28;20076;-21
2022/03/20 10:19:39;;;;;;;23.88;16.55;;;;;;;7.55;54.57;102731.19;4986889;28;20053;-21
2022/03/20 10:22:07;;;;;;;24.40;16.27;;;;;;;7.64;54.65;102733.28;4988320;28;20061;-21
2022/03/20 10:24:34;;;;;;;24.75;16.73;;;;;;;7.73;54.72;102744.09;4986702;28;20428;-21
2022/03/20 10:27:00;;;;;;;25.05;17.42;;;;;;;7.82;54.25;102736.56;4984405;28;20076;-21
2022/03/20 10:29:26;;;;;;;21.10;15.97;;;;;;;7.88;54.38;102729.72;4988381;28;20058;-21
2022/03/20 10:31:54;;;;;;;23.58;15.80;;;;;;;7.97;53.98;102727.41;4986674;28;20292;-21
2022/03/20 10:34:20;;;;;;;19.55;15.55;;;;;;;8.05;54.00;102727.69;4986602;28;20148;-21
2022/03/20 10:36:48;;;;;;;20.00;14.85;;;;;;;8.14;53.63;102730.63;4989820;28;20022;-21
2022/03/20 10:39:19;;;;;;;19.10;14.43;;;;;;;8.23;53.86;102724.78;4988256;28;20125;-21
2022/03/20 10:41:47;;;;;;;20.20;14.25;;;;;;;8.32;53.12;102718.94;4991052;28;20018;-21
2022/03/20 10:44:14;;;;;;;20.52;14.43;;;;;;;8.38;53.66;102713.91;4983930;28;20105;-21
2022/03/20 10:46:40;;;;;;;20.83;14.75;;;;;;;8.45;53.21;102709.72;4986257;28;20061;-21
2022/03/20 10:49:06;;;;;;;18.77;14.90;;;;;;;8.54;52.98;102710.03;4988605;28;20026;-21
2022/03/20 10:51:39;;;;;;;18.55;13.75;;;;;;;8.62;52.59;102714.66;4982641;28;20500;-21
2022/03/20 10:54:15;;;;;;;16.65;13.65;;;;;;;8.67;52.08;102711.34;4986815;28;20124;-21
2022/03/20 10:56:54;;;;;;;18.10;13.95;;;;;;;8.79;52.20;102716.09;4989083;28;20473;-21
2022/03/20 10:59:20;;;;;;;17.08;14.40;;;;;;;8.85;52.02;102705.78;4988542;28;20061;-21
2022/03/20 11:01:45;;;;;;;16.45;13.18;;;;;;;8.92;52.14;102704.22;4984384;28;20054;-21
2022/03/20 11:04:12;;;;;;;19.77;13.73;;;;;;;9.01;52.18;102695.72;4989123;28;20061;-21
2022/03/20 11:06:40;;;;;;;19.70;13.63;;;;;;;9.09;52.30;102696.81;4990997;28;20030;-21
2022/03/20 11:09:06;;;;;;;19.33;13.80;;;;;;;9.18;51.97;102687.41;4990074;28;20049;-21
2022/03/20 11:11:33;;;;;;;18.15;13.05;;;;;;;9.24;51.82;102682.34;4990849;28;20030;-21
2022/03/20 11:13:59;;;;;;;17.15;13.75;;;;;;;9.30;51.15;102685.13;4990804;28;20038;-21
2022/03/20 11:16:26;;;;;;;17.83;13.57;;;;;;;9.35;51.35;102674.72;4971501;28;20089;-21
2022/03/20 11:18:53;;;;;;;20.90;15.23;;;;;;;9.45;51.56;102670.63;4991252;28;20432;-21
2022/03/20 11:21:24;;;;;;;20.60;13.52;;;;;;;9.50;51.59;102668.97;4989458;28;20082;-21
2022/03/20 11:23:51;;;;;;;16.67;13.53;;;;;;;9.57;50.75;102670.94;4990003;28;20053;-21
2022/03/20 11:26:20;;;;;;;16.00;13.15;;;;;;;9.63;51.01;102657.94;4993379;28;20040;-21
2022/03/20 11:28:46;;;;;;;16.58;12.35;;;;;;;9.71;50.59;102659.91;4991879;28;20037;-21
2022/03/20 11:31:12;;;;;;;15.02;12.60;;;;;;;9.75;50.45;102649.47;4990414;28;20404;-21
2022/03/20 11:33:38;;;;;;;18.55;11.70;;;;;;;9.83;49.35;102657.56;4988587;28;20481;-21
2022/03/20 11:36:03;;;;;;;15.20;11.82;;;;;;;9.88;48.87;102663.84;4990817;28;20034;-21
2022/03/20 11:38:31;;;;;;;15.60;11.25;;;;;;;9.94;49.21;102656.97;4994695;28;20029;-21
2022/03/20 11:41:17;;;;;;;14.68;10.90;;;;;;;10.01;49.14;102646.59;4995601;28;20026;-21
2022/03/20 11:43:45;;;;;;;11.60;10.27;;;;;;;10.09;49.50;102654.72;5003778;28;21002;-21
2022/03/20 11:46:22;;;;;;;15.38;12.27;;;;;;;10.13;48.63;102653.94;5001107;28;20154;-21